createdAt,value
2018-06-28T00:00:49.823Z,78.57
2018-06-28T00:01:49.808Z,77.42
2018-06-28T00:02:49.807Z,78.28
2018-06-28T00:03:49.803Z,76.46
2018-06-28T00:04:49.798Z,76.46
2018-06-28T00:05:49.796Z,76.27
2018-06-28T00:06:49.785Z,79.72
2018-06-28T00:07:49.781Z,77.13
2018-06-28T00:08:49.840Z,76.84
2018-06-28T00:09:49.767Z,73.58
2018-06-28T00:10:49.764Z,74.06
2018-06-28T00:11:49.758Z,73.20
2018-06-28T00:12:49.751Z,73.77
2018-06-28T00:13:49.752Z,73.30
2018-06-28T00:14:49.740Z,74.26
2018-06-28T00:15:49.746Z,70.32
2018-06-28T00:16:49.730Z,72.53
2018-06-28T00:17:49.731Z,77.80
2018-06-28T00:18:49.722Z,69.84
2018-06-28T00:19:49.719Z,72.33
2018-06-28T00:20:49.712Z,70.13
2018-06-28T00:21:49.705Z,68.79
2018-06-28T00:22:49.708Z,67.44
2018-06-28T00:23:49.695Z,67.92
2018-06-28T00:24:49.694Z,67.16
2018-06-28T00:25:49.687Z,67.25
2018-06-28T00:26:49.683Z,67.73
2018-06-28T00:27:49.676Z,65.91
2018-06-28T00:28:49.668Z,67.73
2018-06-28T00:29:49.670Z,65.72
2018-06-28T00:30:49.660Z,67.16
2018-06-28T00:31:49.657Z,65.81
2018-06-28T00:32:49.650Z,62.16
2018-06-28T00:33:49.646Z,65.23
2018-06-28T00:34:49.636Z,61.98
2018-06-28T00:35:49.634Z,62.16
2018-06-28T00:36:49.625Z,61.49
2018-06-28T00:37:49.648Z,61.66
2018-06-28T00:38:49.631Z,59.16
2018-06-28T00:39:49.611Z,59.26
2018-06-28T00:40:49.608Z,63.00
2018-06-28T00:41:49.603Z,57.24
2018-06-28T00:42:49.593Z,59.06
2018-06-28T00:43:49.642Z,58.87
2018-06-28T00:44:49.593Z,60.12
2018-06-28T00:45:49.578Z,56.38
2018-06-28T00:46:49.576Z,56.38
2018-06-28T00:47:49.571Z,56.86
2018-06-28T00:48:49.566Z,55.80
2018-06-28T00:49:49.564Z,58.20
2018-06-28T00:50:49.551Z,55.23
2018-06-28T00:51:49.548Z,55.90
2018-06-28T00:52:49.545Z,55.04
2018-06-28T00:53:49.540Z,54.56
2018-06-28T00:54:49.533Z,56.86
2018-06-28T00:55:49.523Z,53.60
2018-06-28T00:56:49.529Z,53.41
2018-06-28T00:57:49.514Z,55.71
2018-06-28T00:58:49.505Z,53.31
2018-06-28T00:59:49.505Z,51.20
2018-06-28T01:00:49.526Z,60.41
2018-06-28T01:01:49.496Z,54.37
2018-06-28T01:02:49.489Z,50.15
2018-06-28T01:03:49.480Z,52.07
2018-06-28T01:04:49.487Z,49.67
2018-06-28T01:05:49.471Z,47.56
2018-06-28T01:06:49.466Z,55.62
2018-06-28T01:07:49.458Z,57.15
2018-06-28T01:08:49.455Z,52.07
2018-06-28T01:09:49.449Z,54.56
2018-06-28T01:10:49.447Z,49.67
2018-06-28T01:11:49.443Z,51.30
2018-06-28T01:12:49.432Z,47.92
2018-06-28T01:13:49.425Z,51.18
2018-06-28T01:14:49.422Z,46.22
2018-06-28T01:15:49.413Z,46.29
2018-06-28T01:16:49.417Z,48.69
2018-06-28T01:17:49.407Z,42.94
2018-06-28T01:18:49.394Z,42.65
2018-06-28T01:19:49.396Z,46.10
2018-06-28T01:20:49.387Z,46.96
2018-06-28T01:21:49.383Z,44.49
2018-06-28T01:22:49.375Z,53.00
2018-06-28T01:23:49.370Z,38.05
2018-06-28T01:24:49.368Z,52.14
2018-06-28T01:25:49.359Z,40.64
2018-06-28T01:26:49.349Z,42.36
2018-06-28T01:27:49.348Z,46.86
2018-06-28T01:28:49.346Z,41.40
2018-06-28T01:29:49.342Z,43.99
2018-06-28T01:30:49.328Z,43.51
2018-06-28T01:31:49.324Z,66.42
2018-06-28T01:32:49.340Z,40.73
2018-06-28T01:33:49.318Z,39.58
2018-06-28T01:34:49.315Z,41.60
2018-06-28T01:35:49.305Z,38.05
2018-06-28T01:36:49.299Z,38.81
2018-06-28T01:37:49.291Z,37.85
2018-06-28T01:38:49.284Z,39.10
2018-06-28T01:39:49.278Z,35.94
2018-06-28T01:40:49.279Z,34.98
2018-06-28T01:41:49.272Z,34.59
2018-06-28T01:42:49.265Z,30.96
2018-06-28T01:43:49.267Z,33.73
2018-06-28T01:44:49.261Z,32.10
2018-06-28T01:45:49.252Z,43.13
2018-06-28T01:46:49.266Z,30.29
2018-06-28T01:47:49.300Z,36.32
2018-06-28T01:48:49.232Z,34.69
2018-06-28T01:49:49.230Z,31.05
2018-06-28T01:50:49.220Z,30.47
2018-06-28T01:51:49.215Z,30.86
2018-06-28T01:52:49.211Z,29.80
2018-06-28T01:53:49.201Z,49.55
2018-06-28T01:54:49.212Z,33.45
2018-06-28T01:55:49.193Z,32.49
2018-06-28T01:56:49.188Z,28.55
2018-06-28T01:57:49.177Z,30.84
2018-06-28T01:58:49.174Z,32.49
2018-06-28T01:59:49.167Z,30.29
2018-06-28T02:00:49.161Z,27.39
2018-06-28T02:01:49.159Z,29.23
2018-06-28T02:02:49.163Z,27.49
2018-06-28T02:03:49.149Z,26.34
2018-06-28T02:04:49.141Z,26.82
2018-06-28T02:05:49.158Z,28.06
2018-06-28T02:06:49.131Z,33.33
2018-06-28T02:07:49.119Z,26.72
2018-06-28T02:08:49.131Z,25.67
2018-06-28T02:09:49.123Z,27.39
2018-06-28T02:10:49.112Z,26.92
2018-06-28T02:11:49.103Z,28.16
2018-06-28T02:12:49.096Z,24.52
2018-06-28T02:13:49.091Z,23.66
2018-06-28T02:14:49.080Z,24.52
2018-06-28T02:15:49.078Z,22.89
2018-06-28T02:16:49.072Z,23.18
2018-06-28T02:17:49.066Z,22.41
2018-06-28T02:18:49.061Z,22.70
2018-06-28T02:19:49.054Z,26.72
2018-06-28T02:20:49.046Z,26.34
2018-06-28T02:21:49.041Z,25.48
2018-06-28T02:22:49.037Z,20.69
2018-06-28T02:23:49.036Z,19.54
2018-06-28T02:24:49.029Z,22.80
2018-06-28T02:25:49.020Z,20.59
2018-06-28T02:26:49.015Z,19.35
2018-06-28T02:27:49.005Z,19.64
2018-06-28T02:28:49.009Z,40.14
2018-06-28T02:29:48.997Z,21.17
2018-06-28T02:30:48.992Z,19.92
2018-06-28T02:31:48.984Z,35.16
2018-06-28T02:32:48.981Z,23.94
2018-06-28T02:33:48.970Z,25.96
2018-06-28T02:34:49.710Z,23.27
2018-06-28T02:35:48.960Z,22.89
2018-06-28T02:36:48.953Z,25.10
2018-06-28T02:37:48.949Z,23.66
2018-06-28T02:38:48.948Z,20.88
2018-06-28T02:39:48.940Z,22.13
2018-06-28T02:40:48.945Z,20.98
2018-06-28T02:41:48.926Z,22.13
2018-06-28T02:42:48.921Z,20.02
2018-06-28T02:43:48.940Z,25.66
2018-06-28T02:44:48.914Z,20.59
2018-06-28T02:45:48.904Z,19.25
2018-06-28T02:46:48.899Z,19.82
2018-06-28T02:47:48.890Z,22.60
2018-06-28T02:48:48.886Z,18.48
2018-06-28T02:49:48.877Z,17.61
2018-06-28T02:50:48.872Z,19.34
2018-06-28T02:51:48.876Z,18.86
2018-06-28T02:52:48.864Z,25.18
2018-06-28T02:53:48.859Z,21.83
2018-06-28T02:54:48.850Z,22.50
2018-06-28T02:55:48.851Z,22.69
2018-06-28T02:56:48.837Z,20.39
2018-06-28T02:57:48.830Z,27.38
2018-06-28T02:58:48.825Z,19.05
2018-06-28T02:59:48.823Z,22.98
2018-06-28T03:00:48.816Z,19.15
2018-06-28T03:01:48.814Z,17.61
2018-06-28T03:02:48.804Z,17.04
2018-06-28T03:03:48.798Z,21.54
2018-06-28T03:04:48.793Z,20.78
2018-06-28T03:05:48.794Z,22.50
2018-06-28T03:06:48.795Z,21.73
2018-06-28T03:07:48.775Z,22.98
2018-06-28T03:08:48.771Z,20.87
2018-06-28T03:09:48.766Z,19.72
2018-06-28T03:10:48.759Z,22.02
2018-06-28T03:11:48.751Z,20.97
2018-06-28T03:12:48.749Z,25.09
2018-06-28T03:13:48.743Z,25.85
2018-06-28T03:14:48.729Z,22.69
2018-06-28T03:15:48.727Z,25.56
2018-06-28T03:16:48.731Z,28.81
2018-06-28T03:17:48.714Z,25.09
2018-06-28T03:18:48.716Z,25.56
2018-06-28T03:19:48.706Z,25.46
2018-06-28T03:20:48.701Z,27.38
2018-06-28T03:21:48.693Z,27.09
2018-06-28T03:22:48.687Z,27.00
2018-06-28T03:23:48.683Z,26.62
2018-06-28T03:24:48.676Z,27.28
2018-06-28T03:25:48.669Z,27.09
2018-06-28T03:26:48.662Z,27.38
2018-06-28T03:27:48.653Z,27.38
2018-06-28T03:28:48.647Z,28.44
2018-06-28T03:29:48.640Z,27.38
2018-06-28T03:30:48.641Z,27.19
2018-06-28T03:31:48.636Z,27.86
2018-06-28T03:32:48.629Z,32.55
2018-06-28T03:33:48.623Z,29.87
2018-06-28T03:34:48.613Z,28.15
2018-06-28T03:35:48.604Z,28.91
2018-06-28T03:36:48.603Z,26.71
2018-06-28T03:37:49.345Z,27.28
2018-06-28T03:38:48.586Z,31.50
2018-06-28T03:39:48.578Z,27.28
2018-06-28T03:40:48.575Z,29.68
2018-06-28T03:41:48.573Z,29.01
2018-06-28T03:42:48.567Z,28.91
2018-06-28T03:43:48.560Z,32.17
2018-06-28T03:44:48.547Z,27.58
2018-06-28T03:45:48.576Z,28.53
2018-06-28T03:46:48.547Z,29.11
2018-06-28T03:47:48.536Z,30.83
2018-06-28T03:48:48.529Z,26.52
2018-06-28T03:49:48.525Z,27.86
2018-06-28T03:50:48.517Z,28.15
2018-06-28T03:51:48.514Z,30.44
2018-06-28T03:52:48.506Z,30.06
2018-06-28T03:53:48.499Z,27.76
2018-06-28T03:54:48.495Z,31.21
2018-06-28T03:55:48.483Z,30.06
2018-06-28T03:56:48.484Z,45.57
2018-06-28T03:57:48.472Z,30.83
2018-06-28T03:58:48.481Z,31.40
2018-06-28T03:59:48.465Z,32.17
2018-06-28T04:00:48.453Z,33.41
2018-06-28T04:01:48.450Z,32.65
2018-06-28T04:02:48.443Z,32.75
2018-06-28T04:03:48.439Z,32.65
2018-06-28T04:04:48.431Z,34.47
2018-06-28T04:05:48.425Z,34.66
2018-06-28T04:06:48.426Z,36.10
2018-06-28T04:07:48.420Z,35.61
2018-06-28T04:08:48.409Z,34.67
2018-06-28T04:09:48.404Z,35.81
2018-06-28T04:10:48.401Z,32.76
2018-06-28T04:11:48.390Z,35.52
2018-06-28T04:12:48.389Z,36.67
2018-06-28T04:13:48.379Z,34.47
2018-06-28T04:14:48.373Z,37.36
2018-06-28T04:15:48.365Z,35.52
2018-06-28T04:16:48.459Z,35.83
2018-06-28T04:17:48.355Z,40.71
2018-06-28T04:18:48.344Z,40.88
2018-06-28T04:19:48.340Z,38.30
2018-06-28T04:20:48.338Z,36.67
2018-06-28T04:21:48.332Z,36.38
2018-06-28T04:22:48.326Z,47.30
2018-06-28T04:23:48.323Z,39.85
2018-06-28T04:24:48.311Z,40.50
2018-06-28T04:25:48.313Z,35.92
2018-06-28T04:26:48.307Z,46.17
2018-06-28T04:27:48.293Z,39.65
2018-06-28T04:28:48.296Z,50.26
2018-06-28T04:29:48.284Z,39.47
2018-06-28T04:30:48.280Z,54.41
2018-06-28T04:31:48.273Z,41.48
2018-06-28T04:32:48.269Z,42.34
2018-06-28T04:33:48.259Z,36.11
2018-06-28T04:34:48.251Z,41.09
2018-06-28T04:35:48.254Z,39.94
2018-06-28T04:36:48.245Z,41.77
2018-06-28T04:37:48.242Z,44.73
2018-06-28T04:38:48.260Z,41.48
2018-06-28T04:39:48.228Z,50.20
2018-06-28T04:40:48.223Z,46.46
2018-06-28T04:41:48.218Z,41.19
2018-06-28T04:42:48.207Z,52.30
2018-06-28T04:43:48.203Z,52.30
2018-06-28T04:44:48.196Z,48.57
2018-06-28T04:45:48.194Z,50.70
2018-06-28T04:46:48.185Z,54.24
2018-06-28T04:47:48.190Z,55.68
2018-06-28T04:48:48.175Z,56.74
2018-06-28T04:49:48.233Z,57.60
2018-06-28T04:50:48.197Z,61.43
2018-06-28T04:51:48.164Z,63.26
2018-06-28T04:52:48.150Z,62.81
2018-06-28T04:53:48.148Z,75.71
2018-06-28T04:54:48.165Z,63.48
2018-06-28T04:55:48.131Z,70.57
2018-06-28T04:56:48.125Z,69.13
2018-06-28T04:57:48.124Z,69.71
2018-06-28T04:58:48.118Z,71.63
2018-06-28T04:59:48.110Z,79.53
2018-06-28T05:00:48.104Z,80.49
2018-06-28T05:01:48.102Z,82.03
2018-06-28T05:02:48.091Z,81.64
2018-06-28T05:03:48.088Z,80.01
2018-06-28T05:04:48.085Z,77.08
2018-06-28T05:05:48.079Z,81.40
2018-06-28T05:06:48.075Z,80.73
2018-06-28T05:07:48.068Z,80.43
2018-06-28T05:08:48.064Z,82.45
2018-06-28T05:09:48.056Z,86.29
2018-06-28T05:10:48.051Z,90.66
2018-06-28T05:11:48.044Z,90.08
2018-06-28T05:12:48.044Z,92.10
2018-06-28T05:13:48.037Z,91.33
2018-06-28T05:14:48.032Z,93.73
2018-06-28T05:15:48.030Z,92.24
2018-06-28T05:16:48.017Z,91.37
2018-06-28T05:17:48.014Z,97.14
2018-06-28T05:18:48.012Z,94.93
2018-06-28T05:19:48.006Z,94.45
2018-06-28T05:20:48.001Z,95.03
2018-06-28T05:21:47.999Z,95.94
2018-06-28T05:22:47.987Z,93.96
2018-06-28T05:23:48.707Z,97.57
2018-06-28T05:24:47.980Z,96.90
2018-06-28T05:25:47.977Z,96.61
2018-06-28T05:26:47.969Z,98.14
2018-06-28T05:27:47.964Z,97.09
2018-06-28T05:28:47.960Z,96.70
2018-06-28T05:29:47.957Z,97.09
2018-06-28T05:30:47.948Z,97.52
2018-06-28T05:31:47.943Z,96.94
2018-06-28T05:32:47.966Z,97.91
2018-06-28T05:33:47.935Z,96.56
2018-06-28T05:34:47.938Z,97.81
2018-06-28T05:35:47.928Z,98.58
2018-06-28T05:36:47.918Z,97.62
2018-06-28T05:37:47.915Z,97.57
2018-06-28T05:38:47.913Z,99.16
2018-06-28T05:39:47.907Z,97.96
2018-06-28T05:40:47.903Z,97.28
2018-06-28T05:41:47.901Z,96.46
2018-06-28T05:42:47.992Z,95.50
2018-06-28T05:43:47.897Z,96.27
2018-06-28T05:44:47.889Z,95.31
2018-06-28T05:45:47.890Z,93.00
2018-06-28T05:46:47.885Z,95.55
2018-06-28T05:47:47.886Z,95.55
2018-06-28T05:48:47.880Z,94.49
2018-06-28T05:49:47.875Z,94.87
2018-06-28T05:50:47.871Z,95.07
2018-06-28T05:51:47.864Z,92.18
2018-06-28T05:52:47.868Z,93.91
2018-06-28T05:53:47.868Z,93.14
2018-06-28T05:54:47.863Z,92.18
2018-06-28T05:55:47.862Z,91.83
2018-06-28T05:56:47.860Z,93.57
2018-06-28T05:57:47.856Z,92.80
2018-06-28T05:58:47.849Z,91.93
2018-06-28T05:59:48.185Z,91.64
2018-06-28T06:00:48.228Z,96.27
2018-06-28T06:01:50.742Z,94.48
2018-06-28T06:02:49.776Z,91.20
2018-06-28T06:03:48.223Z,85.33
2018-06-28T06:04:48.200Z,81.51
2018-06-28T06:05:50.416Z,83.44
2018-06-28T06:06:48.356Z,82.18
2018-06-28T06:07:48.844Z,81.70
2018-06-28T06:08:48.793Z,87.59
2018-06-28T06:09:48.806Z,82.96
2018-06-28T06:10:49.200Z,84.79
2018-06-28T06:11:49.679Z,83.58
2018-06-28T06:12:48.595Z,88.98
2018-06-28T06:13:48.841Z,91.59
2018-06-28T06:14:48.424Z,87.92
2018-06-28T06:15:56.164Z,87.53
2018-06-28T06:18:26.940Z,80.14
